createdAt,value
2023-01-23T00:00:55.829Z,15.13
2023-01-23T00:03:23.911Z,18.15
2023-01-23T00:05:58.591Z,19.05
2023-01-23T00:08:25.584Z,18.10
2023-01-23T00:10:52.207Z,18.30
2023-01-23T00:13:18.834Z,17.90
2023-01-23T00:15:45.398Z,17.83
2023-01-23T00:18:11.827Z,17.65
2023-01-23T00:20:41.528Z,18.00
2023-01-23T00:23:08.794Z,16.10
2023-01-23T00:25:35.953Z,16.25
2023-01-23T00:28:03.119Z,17.05
2023-01-23T00:30:29.561Z,17.27
2023-01-23T00:32:56.020Z,17.40
2023-01-23T00:35:22.769Z,17.73
2023-01-23T00:37:49.269Z,18.10
2023-01-23T00:40:15.842Z,17.70
2023-01-23T00:42:42.256Z,16.55
2023-01-23T00:45:09.238Z,17.17
2023-01-23T00:47:35.671Z,16.10
2023-01-23T00:50:02.120Z,16.08
2023-01-23T00:52:29.300Z,17.02
2023-01-23T00:54:55.766Z,18.13
2023-01-23T00:57:22.263Z,15.85
2023-01-23T00:59:48.721Z,16.58
2023-01-23T01:02:15.120Z,15.90
2023-01-23T01:04:41.627Z,17.45
2023-01-23T01:07:08.124Z,16.27
2023-01-23T01:09:34.686Z,16.17
2023-01-23T01:12:01.157Z,16.20
2023-01-23T01:14:27.544Z,16.45
2023-01-23T01:16:53.988Z,15.88
2023-01-23T01:19:20.449Z,15.98
2023-01-23T01:21:47.525Z,17.55
2023-01-23T01:24:14.072Z,15.95
2023-01-23T01:26:40.590Z,15.38
2023-01-23T01:29:07.031Z,16.50
2023-01-23T01:31:33.658Z,15.80
2023-01-23T01:34:00.242Z,16.33
2023-01-23T01:36:27.464Z,16.23
2023-01-23T01:38:53.979Z,17.13
2023-01-23T01:41:20.474Z,14.98
2023-01-23T01:43:47.069Z,15.43
2023-01-23T01:46:18.199Z,15.25
2023-01-23T01:48:53.474Z,15.13
2023-01-23T01:51:31.394Z,15.52
2023-01-23T01:54:20.855Z,16.48
2023-01-23T01:56:52.098Z,15.40
2023-01-23T01:59:20.185Z,15.70
2023-01-23T02:01:47.862Z,15.00
2023-01-23T02:04:15.682Z,15.05
2023-01-23T02:06:42.605Z,16.35
2023-01-23T02:09:14.310Z,15.18
2023-01-23T02:11:41.150Z,16.50
2023-01-23T02:14:07.591Z,15.75
2023-01-23T02:16:40.276Z,16.55
2023-01-23T02:19:15.551Z,15.98
2023-01-23T02:21:43.506Z,15.80
2023-01-23T02:24:20.187Z,17.50
2023-01-23T02:26:47.107Z,15.90
2023-01-23T02:29:14.726Z,16.08
2023-01-23T02:31:43.057Z,17.25
2023-01-23T02:34:11.882Z,17.60
2023-01-23T02:36:38.867Z,19.40
2023-01-23T02:39:14.724Z,16.83
2023-01-23T02:41:51.916Z,17.63
2023-01-23T02:44:21.215Z,16.77
2023-01-23T02:46:47.629Z,17.02
2023-01-23T02:49:14.404Z,17.63
2023-01-23T02:51:40.802Z,15.68
2023-01-23T02:54:07.342Z,19.05
2023-01-23T02:56:33.945Z,18.92
2023-01-23T02:59:19.058Z,17.50
2023-01-23T03:01:45.621Z,17.70
2023-01-23T03:04:12.424Z,18.63
2023-01-23T03:06:38.945Z,16.98
2023-01-23T03:09:11.195Z,18.70
2023-01-23T03:11:39.985Z,17.45
2023-01-23T03:14:08.573Z,16.77
2023-01-23T03:16:38.158Z,19.67
2023-01-23T03:19:08.926Z,16.88
2023-01-23T03:21:40.364Z,17.75
2023-01-23T03:24:08.496Z,16.60
2023-01-23T03:26:34.935Z,17.15
2023-01-23T03:29:20.045Z,17.33
2023-01-23T03:31:46.570Z,18.77
2023-01-23T03:34:13.124Z,17.13
2023-01-23T03:36:41.075Z,19.88
2023-01-23T03:39:26.825Z,19.63
2023-01-23T03:41:53.583Z,18.83
2023-01-23T03:44:21.385Z,19.00
2023-01-23T03:46:49.376Z,18.50
2023-01-23T03:49:16.280Z,19.85
2023-01-23T03:51:42.829Z,17.60
2023-01-23T03:54:09.520Z,19.33
2023-01-23T03:56:36.357Z,19.27
2023-01-23T03:59:02.834Z,19.25
2023-01-23T04:01:29.527Z,18.15
2023-01-23T04:03:55.989Z,17.33
2023-01-23T04:06:22.758Z,19.50
2023-01-23T04:08:49.197Z,18.00
2023-01-23T04:11:15.634Z,18.30
2023-01-23T04:13:42.151Z,18.17
2023-01-23T04:16:08.664Z,17.90
2023-01-23T04:18:35.268Z,18.23
2023-01-23T04:21:01.818Z,18.90
2023-01-23T04:23:28.336Z,17.52
2023-01-23T04:26:00.709Z,18.13
2023-01-23T04:28:30.372Z,16.95
2023-01-23T04:30:56.946Z,19.63
2023-01-23T04:33:23.492Z,17.50
2023-01-23T04:35:55.058Z,17.50
2023-01-23T04:38:25.738Z,17.90
2023-01-23T04:40:52.779Z,17.00
2023-01-23T04:43:19.562Z,18.00
2023-01-23T04:45:46.503Z,17.55
2023-01-23T04:48:13.623Z,20.65
2023-01-23T04:50:40.045Z,17.83
2023-01-23T04:53:06.901Z,16.50
2023-01-23T04:55:33.961Z,17.60
2023-01-23T04:58:01.099Z,15.15
2023-01-23T05:00:28.961Z,17.83
2023-01-23T05:02:56.089Z,17.85
2023-01-23T05:05:23.241Z,18.00
2023-01-23T05:07:50.808Z,17.00
2023-01-23T05:10:17.516Z,18.13
2023-01-23T05:12:44.188Z,19.05
2023-01-23T05:15:12.301Z,17.27
2023-01-23T05:17:38.806Z,17.27
2023-01-23T05:20:06.083Z,18.08
2023-01-23T05:22:33.626Z,15.65
2023-01-23T05:25:00.222Z,17.45
2023-01-23T05:27:26.833Z,18.08
2023-01-23T05:29:53.329Z,16.98
2023-01-23T05:32:19.804Z,17.75
2023-01-23T05:34:46.293Z,16.83
2023-01-23T05:37:12.738Z,17.85
2023-01-23T05:39:39.150Z,17.23
2023-01-23T05:42:05.820Z,17.25
2023-01-23T05:44:32.309Z,18.83
2023-01-23T05:46:58.762Z,18.15
2023-01-23T05:49:25.314Z,18.42
2023-01-23T05:51:51.743Z,22.40
2023-01-23T05:54:18.238Z,17.95
2023-01-23T05:56:44.806Z,18.42
2023-01-23T05:59:11.231Z,17.50
2023-01-23T06:01:37.750Z,19.65
2023-01-23T06:04:04.303Z,18.95
2023-01-23T06:06:30.717Z,17.85
2023-01-23T06:08:59.392Z,18.02
2023-01-23T06:11:25.861Z,19.17
2023-01-23T06:13:52.411Z,18.08
2023-01-23T06:16:18.887Z,17.98
2023-01-23T06:18:45.345Z,17.13
2023-01-23T06:21:11.860Z,17.02
2023-01-23T06:23:38.277Z,18.00
2023-01-23T06:26:04.989Z,18.30
2023-01-23T06:28:31.588Z,20.35
2023-01-23T06:31:02.409Z,18.73
2023-01-23T06:35:59.769Z,18.35
2023-01-23T06:40:53.872Z,18.27
2023-01-23T06:43:21.165Z,18.73
2023-01-23T06:45:48.128Z,19.90
2023-01-23T06:48:14.943Z,20.38
2023-01-23T06:50:42.304Z,22.75
2023-01-23T06:53:09.264Z,21.15
2023-01-23T06:55:35.986Z,18.77
2023-01-23T06:58:02.650Z,20.20
2023-01-23T07:00:29.124Z,20.33
2023-01-23T07:02:58.849Z,18.85
2023-01-23T07:05:25.541Z,18.63
2023-01-23T07:07:52.217Z,18.75
2023-01-23T07:10:19.004Z,21.00
2023-01-23T07:12:45.686Z,20.13
2023-01-23T07:15:12.150Z,20.00
2023-01-23T07:17:38.775Z,20.40
2023-01-23T07:20:05.717Z,19.15
2023-01-23T07:22:32.241Z,18.58
2023-01-23T07:24:58.705Z,17.58
2023-01-23T07:27:25.165Z,17.33
2023-01-23T07:29:51.839Z,16.30
2023-01-23T07:32:18.352Z,17.42
2023-01-23T07:34:44.749Z,18.45
2023-01-23T07:37:11.244Z,17.95
2023-01-23T07:39:37.780Z,18.77
2023-01-23T07:42:04.314Z,18.08
2023-01-23T07:44:30.830Z,18.10
2023-01-23T07:46:57.386Z,16.88
2023-01-23T07:49:23.859Z,18.08
2023-01-23T07:51:50.299Z,17.98
2023-01-23T07:54:16.755Z,16.85
2023-01-23T07:56:43.480Z,17.10
2023-01-23T07:59:12.318Z,17.50
2023-01-23T08:01:38.958Z,17.70
2023-01-23T08:04:05.640Z,15.85
2023-01-23T08:06:32.229Z,17.73
2023-01-23T08:08:58.598Z,16.35
2023-01-23T08:11:26.605Z,14.57
2023-01-23T08:13:53.124Z,18.05
2023-01-23T08:16:19.665Z,15.70
2023-01-23T08:18:46.195Z,18.98
2023-01-23T08:21:12.780Z,17.58
2023-01-23T08:23:41.010Z,17.25
2023-01-23T08:26:08.876Z,17.30
2023-01-23T08:28:36.048Z,18.17
2023-01-23T08:31:06.670Z,17.73
2023-01-23T08:33:34.445Z,18.45
2023-01-23T08:36:01.265Z,16.00
2023-01-23T08:38:27.901Z,15.52
2023-01-23T08:40:57.949Z,14.95
2023-01-23T08:43:24.500Z,15.73
2023-01-23T08:45:53.342Z,15.48
2023-01-23T08:48:20.646Z,14.90
2023-01-23T08:50:47.175Z,14.75
2023-01-23T08:53:14.119Z,14.93
2023-01-23T08:55:40.928Z,14.65
2023-01-23T08:58:09.002Z,14.65
2023-01-23T09:00:35.580Z,13.50
2023-01-23T09:03:03.070Z,14.40
2023-01-23T09:05:30.335Z,12.15
2023-01-23T09:07:58.941Z,14.07
2023-01-23T09:10:26.151Z,12.95
2023-01-23T09:12:53.801Z,13.10
2023-01-23T09:15:21.190Z,12.35
2023-01-23T09:17:48.024Z,12.05
2023-01-23T09:20:15.459Z,13.15
2023-01-23T09:22:42.041Z,14.70
2023-01-23T09:25:08.963Z,13.65
2023-01-23T09:27:35.420Z,13.25
2023-01-23T09:30:01.886Z,12.88
2023-01-23T09:32:28.313Z,11.90
2023-01-23T09:34:55.183Z,12.68
2023-01-23T09:37:21.687Z,12.95
2023-01-23T09:39:48.253Z,12.85
2023-01-23T09:42:18.292Z,12.70
2023-01-23T09:44:50.745Z,11.67
2023-01-23T09:47:23.328Z,11.63
2023-01-23T09:50:02.891Z,12.75
2023-01-23T09:52:49.878Z,11.50
2023-01-23T09:55:32.035Z,11.48
2023-01-23T09:58:01.112Z,11.57
2023-01-23T10:00:32.708Z,12.13
2023-01-23T10:03:06.361Z,12.07
2023-01-23T10:05:45.086Z,12.23
2023-01-23T10:08:23.516Z,11.13
2023-01-23T10:10:57.927Z,10.02
2023-01-23T10:13:48.066Z,11.10
2023-01-23T10:16:52.460Z,10.33
2023-01-23T10:19:34.326Z,10.70
2023-01-23T10:22:26.163Z,11.13
2023-01-23T10:24:56.415Z,10.57
2023-01-23T10:27:26.293Z,10.68
2023-01-23T10:29:58.005Z,11.15
2023-01-23T10:32:27.835Z,10.98
2023-01-23T10:35:02.124Z,11.88
2023-01-23T10:37:40.998Z,9.52
2023-01-23T10:40:17.426Z,9.98
2023-01-23T10:42:43.949Z,10.70
2023-01-23T10:45:18.388Z,9.95
2023-01-23T10:47:55.081Z,11.90
2023-01-23T10:50:39.778Z,9.85
2023-01-23T10:53:08.503Z,8.98
2023-01-23T10:55:37.083Z,9.45
2023-01-23T10:58:03.879Z,9.07
2023-01-23T11:00:40.706Z,8.98
2023-01-23T11:03:22.491Z,12.23
2023-01-23T11:06:02.113Z,10.82
2023-01-23T11:08:38.607Z,9.75
2023-01-23T11:11:14.274Z,8.27
2023-01-23T11:13:41.948Z,10.40
2023-01-23T11:16:14.036Z,9.77
2023-01-23T11:18:42.728Z,9.18
2023-01-23T11:21:23.856Z,8.98
2023-01-23T11:26:34.129Z,9.85
2023-01-23T11:29:00.673Z,8.32
2023-01-23T11:31:28.584Z,10.27
2023-01-23T11:33:55.108Z,9.68
2023-01-23T11:36:51.175Z,10.65
2023-01-23T11:39:36.149Z,10.60
2023-01-23T11:42:02.952Z,12.30
2023-01-23T11:44:38.051Z,9.68
2023-01-23T11:47:37.864Z,10.68
2023-01-23T11:50:07.251Z,11.15
2023-01-23T11:52:33.794Z,9.25
2023-01-23T11:55:25.501Z,9.77
2023-01-23T11:58:04.053Z,11.73
2023-01-23T12:00:36.632Z,11.63
2023-01-23T12:03:33.580Z,12.38
2023-01-23T12:06:19.529Z,12.30
2023-01-23T12:09:02.225Z,11.07
2023-01-23T12:11:37.161Z,12.25
2023-01-23T12:14:24.993Z,10.52
2023-01-23T12:17:02.332Z,9.98
2023-01-23T12:19:50.081Z,11.05
2023-01-23T12:22:28.049Z,10.73
2023-01-23T12:25:12.015Z,11.45
2023-01-23T12:27:44.172Z,10.25
2023-01-23T12:30:55.553Z,12.00
2023-01-23T12:33:57.390Z,10.60
2023-01-23T12:37:09.986Z,11.13
2023-01-23T12:39:50.127Z,10.57
2023-01-23T12:42:28.902Z,10.75
2023-01-23T12:45:16.956Z,10.73
2023-01-23T12:48:01.967Z,9.23
2023-01-23T12:50:53.799Z,9.60
2023-01-23T12:53:22.864Z,9.73
2023-01-23T12:55:57.335Z,10.00
2023-01-23T12:58:27.035Z,9.30
2023-01-23T13:00:57.050Z,9.43
2023-01-23T13:03:51.781Z,8.35
2023-01-23T13:06:26.757Z,12.00
2023-01-23T13:09:12.060Z,10.27
2023-01-23T13:11:52.636Z,10.17
2023-01-23T13:14:34.779Z,11.07
2023-01-23T13:17:38.002Z,10.57
2023-01-23T13:20:43.529Z,10.30
2023-01-23T13:23:32.644Z,10.27
2023-01-23T13:26:22.952Z,10.43
2023-01-23T13:29:02.091Z,9.88
2023-01-23T13:31:46.751Z,12.82
2023-01-23T13:34:16.809Z,9.77
2023-01-23T13:36:47.385Z,11.00
2023-01-23T13:39:17.159Z,11.13
2023-01-23T13:41:50.562Z,10.00
2023-01-23T13:44:40.865Z,12.52
2023-01-23T14:21:41.769Z,9.40
2023-01-23T14:24:23.188Z,10.98
2023-01-23T14:26:52.484Z,9.00
2023-01-23T14:29:24.307Z,11.82
2023-01-23T14:31:51.281Z,8.70
2023-01-23T14:34:22.712Z,10.52
2023-01-23T14:36:52.752Z,10.48
2023-01-23T14:39:21.960Z,9.40
2023-01-23T14:41:48.927Z,9.98
2023-01-23T14:44:21.889Z,8.95
2023-01-23T14:46:53.338Z,11.07
2023-01-23T14:49:29.195Z,10.15
2023-01-23T14:51:58.920Z,11.15
2023-01-23T14:54:29.625Z,10.07
2023-01-23T14:56:59.731Z,9.68
2023-01-23T14:59:34.832Z,9.38
2023-01-23T15:02:21.549Z,10.95
2023-01-23T15:05:16.950Z,9.40
2023-01-23T15:08:09.620Z,9.38
2023-01-23T15:10:44.986Z,11.88
2023-01-23T15:13:21.614Z,12.13
2023-01-23T15:15:57.196Z,9.73
2023-01-23T15:18:27.513Z,9.60
2023-01-23T15:20:56.669Z,9.85
2023-01-23T15:23:25.688Z,10.82
2023-01-23T15:26:11.468Z,10.50
2023-01-23T15:28:49.035Z,11.00
2023-01-23T15:31:33.604Z,9.63
2023-01-23T15:34:15.580Z,10.65
2023-01-23T15:37:07.020Z,9.30
2023-01-23T15:39:39.701Z,10.77
2023-01-23T15:42:26.482Z,10.93
2023-01-23T15:44:53.320Z,10.93
2023-01-23T15:47:19.797Z,11.02
2023-01-23T15:49:46.498Z,10.32
2023-01-23T15:52:26.655Z,9.93
2023-01-23T15:54:55.625Z,13.43
2023-01-23T15:57:22.306Z,10.75
2023-01-23T15:59:48.799Z,11.32
2023-01-23T16:02:32.955Z,10.35
2023-01-23T16:05:01.675Z,10.68
2023-01-23T16:07:34.111Z,10.02
2023-01-23T16:10:02.365Z,9.52
2023-01-23T16:12:29.786Z,10.23
2023-01-23T16:14:57.033Z,10.10
2023-01-23T16:17:23.649Z,10.45
2023-01-23T16:19:50.673Z,10.68
2023-01-23T16:22:29.217Z,11.98
2023-01-23T16:24:57.157Z,12.13
2023-01-23T16:27:27.450Z,10.93
2023-01-23T16:29:55.180Z,12.00
2023-01-23T16:32:21.880Z,11.40
2023-01-23T16:34:48.802Z,10.80
2023-01-23T16:37:16.692Z,11.30
2023-01-23T16:39:45.210Z,11.25
2023-01-23T16:42:24.951Z,10.02
2023-01-23T16:44:51.556Z,10.68
2023-01-23T16:47:18.348Z,9.32
2023-01-23T16:49:53.551Z,11.60
2023-01-23T16:52:22.317Z,9.82
2023-01-23T16:54:51.966Z,10.55
2023-01-23T16:57:20.401Z,10.68
2023-01-23T16:59:48.120Z,10.98
2023-01-23T17:02:22.055Z,12.13
2023-01-23T17:04:48.949Z,10.95
2023-01-23T17:07:17.289Z,11.00
2023-01-23T17:09:44.737Z,11.30
2023-01-23T17:12:17.311Z,10.60
2023-01-23T17:14:45.016Z,10.55
2023-01-23T17:17:15.364Z,12.57
2023-01-23T17:19:42.424Z,11.77
2023-01-23T17:22:21.360Z,11.23
2023-01-23T17:24:48.310Z,11.27
2023-01-23T17:27:15.030Z,10.73
2023-01-23T17:29:41.518Z,11.77
2023-01-23T17:32:18.805Z,12.07
2023-01-23T17:34:50.173Z,11.55
2023-01-23T17:37:21.084Z,10.38
2023-01-23T17:39:47.573Z,10.32
2023-01-23T17:42:16.827Z,11.50
2023-01-23T17:44:43.336Z,10.88
2023-01-23T17:47:14.089Z,12.10
2023-01-23T17:49:41.805Z,11.52
2023-01-23T17:52:11.215Z,10.77
2023-01-23T17:54:37.757Z,19.75
2023-01-23T17:57:04.494Z,11.60
2023-01-23T17:59:31.148Z,11.63
2023-01-23T18:01:58.253Z,11.57
2023-01-23T18:04:24.869Z,11.85
2023-01-23T18:06:51.406Z,11.73
2023-01-23T18:09:18.930Z,17.38
2023-01-23T18:11:52.560Z,16.33
2023-01-23T18:14:25.237Z,12.70
2023-01-23T18:16:53.126Z,12.00
2023-01-23T18:19:24.553Z,12.50
2023-01-23T18:21:55.814Z,10.90
2023-01-23T18:24:25.182Z,11.40
2023-01-23T18:26:59.201Z,11.80
2023-01-23T18:29:50.420Z,13.63
2023-01-23T18:34:55.160Z,9.82
2023-01-23T18:37:52.720Z,10.40
2023-01-23T18:40:22.306Z,10.77
2023-01-23T18:43:08.756Z,11.48
2023-01-23T18:45:35.468Z,12.40
2023-01-23T18:48:02.195Z,11.50
2023-01-23T18:50:29.113Z,11.52
2023-01-23T18:53:18.712Z,12.40
2023-01-23T18:56:08.098Z,13.02
2023-01-23T18:59:06.221Z,13.95
2023-01-23T19:01:39.866Z,12.35
2023-01-23T19:04:14.414Z,13.43
2023-01-23T19:06:41.802Z,11.82
2023-01-23T19:09:27.541Z,12.30
2023-01-23T19:12:02.811Z,11.32
2023-01-23T19:14:48.178Z,14.05
2023-01-23T19:18:02.790Z,14.52
2023-01-23T19:20:51.736Z,12.13
2023-01-23T19:23:32.847Z,12.10
2023-01-23T19:28:26.137Z,12.48
2023-01-23T19:30:52.913Z,12.23
2023-01-23T19:33:20.419Z,12.65
2023-01-23T19:35:48.451Z,11.60
2023-01-23T19:38:15.095Z,11.65
2023-01-23T19:40:42.199Z,11.77
2023-01-23T19:43:15.185Z,12.45
2023-01-23T19:45:42.712Z,12.10
2023-01-23T19:48:09.597Z,11.85
2023-01-23T19:50:36.312Z,12.98
2023-01-23T19:53:03.263Z,11.98
2023-01-23T19:55:32.537Z,11.75
2023-01-23T19:57:59.209Z,12.45
2023-01-23T20:00:27.757Z,11.60
2023-01-23T20:02:54.341Z,12.13
2023-01-23T20:05:22.068Z,11.00
2023-01-23T20:07:49.516Z,13.50
2023-01-23T20:10:16.619Z,12.95
2023-01-23T20:12:51.756Z,12.90
2023-01-23T20:15:20.689Z,12.07
2023-01-23T20:17:47.317Z,12.70
2023-01-23T20:20:16.617Z,11.35
2023-01-23T20:22:43.988Z,11.95
2023-01-23T20:25:16.139Z,11.80
2023-01-23T20:27:46.210Z,11.95
2023-01-23T20:30:18.316Z,12.63
2023-01-23T20:32:44.858Z,11.70
2023-01-23T20:35:11.858Z,12.07
2023-01-23T20:37:38.423Z,12.65
2023-01-23T20:40:05.520Z,12.23
2023-01-23T20:42:33.450Z,12.27
2023-01-23T20:44:59.987Z,12.23
2023-01-23T20:47:26.551Z,13.57
2023-01-23T20:49:52.996Z,12.68
2023-01-23T20:52:38.026Z,14.57
2023-01-23T20:55:04.796Z,13.60
2023-01-23T20:57:50.068Z,15.15
2023-01-23T21:00:17.128Z,13.88
2023-01-23T21:02:43.854Z,13.80
2023-01-23T21:05:10.522Z,16.65
2023-01-23T21:07:37.000Z,13.35
2023-01-23T21:10:03.667Z,13.65
2023-01-23T21:12:30.112Z,14.20
2023-01-23T21:14:56.600Z,14.60
2023-01-23T21:17:23.283Z,13.45
2023-01-23T21:19:49.798Z,14.13
2023-01-23T21:22:16.330Z,14.80
2023-01-23T21:24:42.904Z,14.68
2023-01-23T21:27:09.784Z,12.95
2023-01-23T21:29:37.731Z,14.68
2023-01-23T21:32:04.200Z,13.88
2023-01-23T21:34:30.980Z,14.60
2023-01-23T21:36:57.561Z,13.50
2023-01-23T21:39:24.016Z,13.15
2023-01-23T21:41:50.517Z,13.68
2023-01-23T21:44:17.089Z,11.95
2023-01-23T21:46:43.714Z,13.55
2023-01-23T21:49:10.338Z,12.93
2023-01-23T21:51:37.038Z,12.07
2023-01-23T21:54:03.671Z,13.05
2023-01-23T21:56:30.561Z,11.85
2023-01-23T21:58:57.009Z,11.55
2023-01-23T22:01:41.955Z,12.55
2023-01-23T22:04:11.459Z,12.45
2023-01-23T22:06:39.793Z,11.40
2023-01-23T22:09:07.727Z,10.95
2023-01-23T22:11:34.639Z,11.70
2023-01-23T22:14:01.706Z,11.55
2023-01-23T22:16:46.815Z,11.73
2023-01-23T22:19:15.977Z,11.93
2023-01-23T22:21:43.806Z,11.27
2023-01-23T22:24:10.370Z,11.55
2023-01-23T22:26:37.153Z,12.40
2023-01-23T22:29:03.676Z,10.93
2023-01-23T22:31:30.471Z,10.82
2023-01-23T22:33:57.086Z,11.32
2023-01-23T22:36:23.555Z,11.02
2023-01-23T22:38:51.473Z,11.18
2023-01-23T22:41:18.188Z,10.93
2023-01-23T22:43:44.716Z,11.30
2023-01-23T22:46:14.256Z,10.55
2023-01-23T22:48:40.883Z,12.27
2023-01-23T22:51:15.586Z,11.40
2023-01-23T22:53:41.980Z,9.45
2023-01-23T22:56:09.047Z,11.27
2023-01-23T22:58:36.020Z,11.32
2023-01-23T23:01:02.701Z,11.65
2023-01-23T23:03:33.773Z,9.70
2023-01-23T23:08:29.059Z,11.10
2023-01-23T23:11:08.004Z,10.05
2023-01-23T23:13:35.441Z,12.00
2023-01-23T23:16:04.129Z,11.70
2023-01-23T23:18:30.913Z,10.10
2023-01-23T23:21:02.255Z,11.27
2023-01-23T23:23:28.830Z,12.18
2023-01-23T23:25:56.040Z,10.77
2023-01-23T23:28:24.243Z,11.70
2023-01-23T23:30:51.109Z,13.45
2023-01-23T23:33:17.531Z,10.75
2023-01-23T23:35:44.441Z,11.32
2023-01-23T23:38:11.717Z,11.35
2023-01-23T23:40:38.885Z,11.50
2023-01-23T23:43:05.508Z,10.88
2023-01-23T23:45:32.053Z,11.48
2023-01-23T23:47:58.676Z,12.10
2023-01-23T23:50:25.167Z,11.65
2023-01-23T23:52:51.771Z,11.07
2023-01-23T23:55:18.419Z,11.38
2023-01-23T23:57:44.876Z,10.48
